createdAt,value
2017-11-16T00:00:42.207Z,100.0
2017-11-16T00:01:44.475Z,100.0
2017-11-16T00:02:46.058Z,100.0
2017-11-16T00:03:47.568Z,100.0
2017-11-16T00:04:49.096Z,100.0
2017-11-16T00:05:50.617Z,100.0
2017-11-16T00:06:52.172Z,100.0
2017-11-16T00:07:53.676Z,100.0
2017-11-16T00:08:55.168Z,100.0
2017-11-16T00:09:56.620Z,100.0
2017-11-16T00:10:58.684Z,100.0
2017-11-16T00:12:00.226Z,100.0
2017-11-16T00:13:01.748Z,100.0
2017-11-16T00:14:03.302Z,100.0
2017-11-16T00:15:04.870Z,100.0
2017-11-16T00:16:06.370Z,100.0
2017-11-16T00:17:07.953Z,100.0
2017-11-16T00:18:09.447Z,100.0
2017-11-16T00:19:10.929Z,100.0
2017-11-16T00:20:12.448Z,100.0
2017-11-16T00:21:13.977Z,100.0
2017-11-16T00:22:15.525Z,100.0
2017-11-16T00:23:17.039Z,100.0
2017-11-16T00:24:18.531Z,100.0
2017-11-16T00:25:20.001Z,100.0
2017-11-16T00:26:21.497Z,100.0
2017-11-16T00:27:22.987Z,100.0
2017-11-16T00:28:24.525Z,100.0
2017-11-16T00:29:26.022Z,100.0
2017-11-16T00:30:27.530Z,100.0
2017-11-16T00:31:29.114Z,100.0
2017-11-16T00:32:30.639Z,100.0
2017-11-16T00:33:32.139Z,100.0
2017-11-16T00:34:33.623Z,100.0
2017-11-16T00:35:35.255Z,100.0
2017-11-16T00:36:36.712Z,100.0
2017-11-16T00:37:38.193Z,100.0
2017-11-16T00:38:39.672Z,100.0
2017-11-16T00:39:41.171Z,100.0
2017-11-16T00:40:42.730Z,100.0
2017-11-16T00:41:44.160Z,100.0
2017-11-16T00:42:45.620Z,100.0
2017-11-16T00:43:47.110Z,100.0
2017-11-16T00:44:48.599Z,100.0
2017-11-16T00:45:50.101Z,100.0
2017-11-16T00:46:51.728Z,100.0
2017-11-16T00:47:53.276Z,100.0
2017-11-16T00:48:54.763Z,100.0
2017-11-16T00:49:56.457Z,100.0
2017-11-16T00:50:58.977Z,100.0
2017-11-16T00:52:00.719Z,100.0
2017-11-16T00:53:03.304Z,100.0
2017-11-16T00:54:06.239Z,100.0
2017-11-16T00:55:08.211Z,100.0
2017-11-16T00:56:09.732Z,100.0
2017-11-16T00:57:11.211Z,100.0
2017-11-16T00:58:12.726Z,100.0
2017-11-16T00:59:14.202Z,100.0
2017-11-16T01:00:15.694Z,100.0
2017-11-16T01:01:17.180Z,100.0
2017-11-16T01:02:18.703Z,100.0
2017-11-16T01:03:20.244Z,100.0
2017-11-16T01:04:21.706Z,100.0
2017-11-16T01:05:23.199Z,100.0
2017-11-16T01:06:24.694Z,100.0
2017-11-16T01:07:26.174Z,100.0
2017-11-16T01:08:27.620Z,100.0
2017-11-16T01:09:29.093Z,100.0
2017-11-16T01:10:30.554Z,100.0
2017-11-16T01:11:32.061Z,100.0
2017-11-16T01:12:33.587Z,100.0
2017-11-16T01:13:35.104Z,100.0
2017-11-16T01:14:36.576Z,100.0
2017-11-16T01:15:38.059Z,100.0
2017-11-16T01:16:39.525Z,100.0
2017-11-16T01:17:40.993Z,100.0
2017-11-16T01:18:42.534Z,100.0
2017-11-16T01:19:43.983Z,100.0
2017-11-16T01:20:45.430Z,100.0
2017-11-16T01:21:46.888Z,100.0
2017-11-16T01:22:48.362Z,100.0
2017-11-16T01:23:49.859Z,100.0
2017-11-16T01:24:51.358Z,100.0
2017-11-16T01:25:52.841Z,100.0
2017-11-16T01:26:54.358Z,100.0
2017-11-16T01:27:55.836Z,100.0
2017-11-16T01:28:57.400Z,100.0
2017-11-16T01:29:58.888Z,100.0
2017-11-16T01:31:00.424Z,100.0
2017-11-16T01:32:01.876Z,100.0
2017-11-16T01:33:03.356Z,100.0
2017-11-16T01:34:04.891Z,100.0
2017-11-16T01:35:06.361Z,100.0
2017-11-16T01:36:07.840Z,100.0
2017-11-16T01:37:09.967Z,100.0
2017-11-16T01:38:11.470Z,100.0
2017-11-16T01:39:12.929Z,100.0
2017-11-16T01:40:14.484Z,100.0
2017-11-16T01:41:15.948Z,100.0
2017-11-16T01:42:17.415Z,100.0
2017-11-16T01:43:18.947Z,100.0
2017-11-16T01:44:20.417Z,100.0
2017-11-16T01:45:21.937Z,100.0
2017-11-16T01:46:23.393Z,100.0
2017-11-16T01:47:24.921Z,100.0
2017-11-16T01:48:26.429Z,100.0
2017-11-16T01:49:27.961Z,100.0
2017-11-16T01:50:29.427Z,100.0
2017-11-16T01:51:30.960Z,100.0
2017-11-16T01:52:32.497Z,100.0
2017-11-16T01:53:33.994Z,100.0
2017-11-16T01:54:35.489Z,100.0
2017-11-16T01:55:36.964Z,100.0
2017-11-16T01:56:38.420Z,100.0
2017-11-16T01:57:39.940Z,100.0
2017-11-16T01:58:41.459Z,100.0
2017-11-16T01:59:42.951Z,100.0
2017-11-16T02:00:44.439Z,100.0
2017-11-16T02:01:45.908Z,100.0
2017-11-16T02:02:47.358Z,100.0
2017-11-16T02:03:48.805Z,100.0
2017-11-16T02:04:50.301Z,100.0
2017-11-16T02:05:51.797Z,100.0
2017-11-16T02:06:53.239Z,100.0
2017-11-16T02:07:54.768Z,100.0
2017-11-16T02:08:56.235Z,100.0
2017-11-16T02:09:57.784Z,100.0
2017-11-16T02:10:59.374Z,100.0
2017-11-16T02:12:00.949Z,100.0
2017-11-16T02:13:02.476Z,100.0
2017-11-16T02:14:03.968Z,100.0
2017-11-16T02:15:05.461Z,100.0
2017-11-16T02:16:06.985Z,100.0
2017-11-16T02:17:08.450Z,100.0
2017-11-16T02:18:09.893Z,100.0
2017-11-16T02:19:11.398Z,100.0
2017-11-16T02:20:12.920Z,100.0
2017-11-16T02:21:14.422Z,100.0
2017-11-16T02:22:15.899Z,100.0
2017-11-16T02:23:17.397Z,100.0
2017-11-16T02:24:18.871Z,100.0
2017-11-16T02:25:20.399Z,100.0
2017-11-16T02:26:21.873Z,100.0
2017-11-16T02:27:23.343Z,100.0
2017-11-16T02:28:24.804Z,100.0
2017-11-16T02:29:26.341Z,100.0
2017-11-16T02:30:27.896Z,100.0
2017-11-16T02:31:29.354Z,100.0
2017-11-16T02:32:30.901Z,100.0
2017-11-16T02:33:32.390Z,100.0
2017-11-16T02:34:33.845Z,100.0
2017-11-16T02:35:35.384Z,100.0
2017-11-16T02:36:36.894Z,100.0
2017-11-16T02:37:38.352Z,100.0
2017-11-16T02:38:39.867Z,100.0
2017-11-16T02:39:41.316Z,100.0
2017-11-16T02:40:42.817Z,100.0
2017-11-16T02:41:44.299Z,100.0
2017-11-16T02:42:45.747Z,100.0
2017-11-16T02:43:47.220Z,100.0
2017-11-16T02:44:48.706Z,100.0
2017-11-16T02:45:50.205Z,100.0
2017-11-16T02:46:51.684Z,100.0
2017-11-16T02:47:53.143Z,100.0
2017-11-16T02:48:54.650Z,100.0
2017-11-16T02:49:56.123Z,100.0
2017-11-16T02:50:57.600Z,100.0
2017-11-16T02:51:59.101Z,100.0
2017-11-16T02:53:00.543Z,100.0
2017-11-16T02:54:02.058Z,100.0
2017-11-16T02:55:03.515Z,100.0
2017-11-16T02:56:05.033Z,100.0
2017-11-16T02:57:06.533Z,100.0
2017-11-16T02:58:08.023Z,100.0
2017-11-16T02:59:09.558Z,100.0
2017-11-16T03:00:11.135Z,100.0
2017-11-16T03:01:12.621Z,100.0
2017-11-16T03:02:14.077Z,100.0
2017-11-16T03:03:15.511Z,100.0
2017-11-16T03:04:17.013Z,100.0
2017-11-16T03:05:18.514Z,100.0
2017-11-16T03:06:20.018Z,100.0
2017-11-16T03:07:21.505Z,100.0
2017-11-16T03:08:22.985Z,100.0
2017-11-16T03:09:24.449Z,100.0
2017-11-16T03:10:26.806Z,100.0
2017-11-16T03:11:28.294Z,100.0
2017-11-16T03:12:29.705Z,100.0
2017-11-16T03:13:31.253Z,100.0
2017-11-16T03:14:32.785Z,100.0
2017-11-16T03:15:34.223Z,100.0
2017-11-16T03:16:35.652Z,100.0
2017-11-16T03:17:37.117Z,100.0
2017-11-16T03:18:38.557Z,100.0
2017-11-16T03:19:40.033Z,100.0
2017-11-16T03:20:41.450Z,100.0
2017-11-16T03:21:42.916Z,100.0
2017-11-16T03:22:44.338Z,100.0
2017-11-16T03:23:45.753Z,100.0
2017-11-16T03:24:47.200Z,100.0
2017-11-16T03:25:48.643Z,100.0
2017-11-16T03:26:50.070Z,100.0
2017-11-16T03:27:51.595Z,100.0
2017-11-16T03:28:53.086Z,100.0
2017-11-16T03:29:54.541Z,100.0
2017-11-16T03:30:55.975Z,100.0
2017-11-16T03:31:57.447Z,100.0
2017-11-16T03:32:58.910Z,100.0
2017-11-16T03:34:00.373Z,100.0
2017-11-16T03:35:01.872Z,100.0
2017-11-16T03:36:03.360Z,100.0
2017-11-16T03:37:04.824Z,100.0
2017-11-16T03:38:06.229Z,100.0
2017-11-16T03:39:07.700Z,100.0
2017-11-16T03:40:09.149Z,100.0
2017-11-16T03:41:10.614Z,100.0
2017-11-16T03:42:12.084Z,100.0
2017-11-16T03:43:13.511Z,100.0
2017-11-16T03:44:15.030Z,100.0
2017-11-16T03:45:16.508Z,100.0
2017-11-16T03:46:17.991Z,100.0
2017-11-16T03:47:19.420Z,100.0
2017-11-16T03:48:20.926Z,100.0
2017-11-16T03:49:22.378Z,100.0
2017-11-16T03:50:23.835Z,100.0
2017-11-16T03:51:25.369Z,100.0
2017-11-16T03:52:26.782Z,100.0
2017-11-16T03:53:28.254Z,100.0
2017-11-16T03:54:29.758Z,100.0
2017-11-16T03:55:31.208Z,100.0
2017-11-16T03:56:32.661Z,100.0
2017-11-16T03:57:34.111Z,100.0
2017-11-16T03:58:35.544Z,100.0
2017-11-16T03:59:37.045Z,100.0
2017-11-16T04:00:38.470Z,100.0
2017-11-16T04:01:39.895Z,100.0
2017-11-16T04:02:41.403Z,100.0
2017-11-16T04:03:42.826Z,100.0
2017-11-16T04:04:44.240Z,100.0
2017-11-16T04:05:45.723Z,100.0
2017-11-16T04:06:47.235Z,100.0
2017-11-16T04:07:48.736Z,100.0
2017-11-16T04:08:50.195Z,100.0
2017-11-16T04:09:51.631Z,100.0
2017-11-16T04:10:53.114Z,100.0
2017-11-16T04:11:54.595Z,100.0
2017-11-16T04:12:56.037Z,100.0
2017-11-16T04:13:57.544Z,100.0
2017-11-16T04:14:59.021Z,100.0
2017-11-16T04:16:00.578Z,100.0
2017-11-16T04:17:02.089Z,100.0
2017-11-16T04:18:03.548Z,100.0
2017-11-16T04:19:05.038Z,100.0
2017-11-16T04:20:06.486Z,100.0
2017-11-16T04:21:07.962Z,100.0
2017-11-16T04:22:09.438Z,100.0
2017-11-16T04:23:10.891Z,100.0
2017-11-16T04:24:12.338Z,100.0
2017-11-16T04:25:13.864Z,100.0
2017-11-16T04:26:15.335Z,100.0
2017-11-16T04:27:16.811Z,100.0
2017-11-16T04:28:18.261Z,100.0
2017-11-16T04:29:19.774Z,100.0
2017-11-16T04:30:21.206Z,100.0
2017-11-16T04:31:22.696Z,100.0
2017-11-16T04:32:24.199Z,100.0
2017-11-16T04:33:25.693Z,100.0
2017-11-16T04:34:27.169Z,100.0
2017-11-16T04:35:28.631Z,100.0
2017-11-16T04:36:30.106Z,100.0
2017-11-16T04:37:31.549Z,100.0
2017-11-16T04:38:33.063Z,100.0
2017-11-16T04:39:34.552Z,100.0
2017-11-16T04:40:36.029Z,100.0
2017-11-16T04:41:37.461Z,100.0
2017-11-16T04:42:38.921Z,100.0
2017-11-16T04:43:40.394Z,100.0
2017-11-16T04:44:41.880Z,100.0
2017-11-16T04:45:43.290Z,100.0
2017-11-16T04:46:44.849Z,100.0
2017-11-16T04:47:47.145Z,100.0
2017-11-16T04:48:48.600Z,100.0
2017-11-16T04:49:50.047Z,100.0
2017-11-16T04:50:51.493Z,100.0
2017-11-16T04:51:53.021Z,100.0
2017-11-16T04:52:54.490Z,100.0
2017-11-16T04:53:56.088Z,100.0
2017-11-16T04:54:57.543Z,100.0
2017-11-16T04:55:59.061Z,100.0
2017-11-16T04:57:00.492Z,100.0
2017-11-16T04:58:01.954Z,100.0
2017-11-16T04:59:03.440Z,100.0
2017-11-16T05:00:04.937Z,100.0
2017-11-16T05:01:06.414Z,100.0
2017-11-16T05:02:07.882Z,100.0
2017-11-16T05:03:09.444Z,100.0
2017-11-16T05:04:10.902Z,100.0
2017-11-16T05:05:12.338Z,100.0
2017-11-16T05:06:13.831Z,100.0
2017-11-16T05:07:15.299Z,100.0
2017-11-16T05:08:16.768Z,100.0
2017-11-16T05:09:18.250Z,100.0
2017-11-16T05:10:19.713Z,100.0
2017-11-16T05:11:21.147Z,100.0
2017-11-16T05:12:22.649Z,100.0
2017-11-16T05:13:24.117Z,100.0
2017-11-16T05:14:25.619Z,100.0
2017-11-16T05:15:27.071Z,100.0
2017-11-16T05:16:28.661Z,100.0
2017-11-16T05:17:30.926Z,100.0
2017-11-16T05:18:32.379Z,100.0
2017-11-16T05:19:34.210Z,100.0
2017-11-16T05:20:35.894Z,100.0
2017-11-16T05:21:37.864Z,100.0
2017-11-16T05:22:39.370Z,100.0
2017-11-16T05:23:40.820Z,100.0
2017-11-16T05:24:42.978Z,100.0
2017-11-16T05:25:45.476Z,100.0
2017-11-16T05:26:46.789Z,100.0
2017-11-16T05:27:48.231Z,100.0
2017-11-16T05:28:50.179Z,100.0
2017-11-16T05:29:51.707Z,100.0
2017-11-16T05:30:53.712Z,100.0
2017-11-16T05:31:55.154Z,100.0
2017-11-16T05:32:56.785Z,100.0
2017-11-16T05:33:58.289Z,100.0
2017-11-16T05:34:59.728Z,100.0
2017-11-16T05:36:01.166Z,100.0
2017-11-16T05:37:02.609Z,100.0
2017-11-16T05:38:04.095Z,100.0
2017-11-16T05:39:05.636Z,100.0
2017-11-16T05:40:07.078Z,100.0
2017-11-16T05:41:08.565Z,100.0
2017-11-16T05:42:10.079Z,100.0
2017-11-16T05:43:11.575Z,100.0
2017-11-16T05:44:13.029Z,100.0
2017-11-16T05:45:14.598Z,100.0
2017-11-16T05:46:16.132Z,100.0
2017-11-16T05:47:17.605Z,100.0
2017-11-16T05:48:19.184Z,100.0
2017-11-16T05:49:20.683Z,100.0
2017-11-16T05:50:22.220Z,100.0
2017-11-16T05:51:23.820Z,100.0
2017-11-16T05:52:25.345Z,100.0
2017-11-16T05:53:26.811Z,100.0
2017-11-16T05:54:28.340Z,100.0
2017-11-16T05:55:29.757Z,100.0
2017-11-16T05:56:31.258Z,100.0
2017-11-16T05:57:32.722Z,100.0
2017-11-16T05:58:34.149Z,100.0
2017-11-16T05:59:35.690Z,100.0
2017-11-16T06:00:37.176Z,100.0
2017-11-16T06:01:38.618Z,100.0
2017-11-16T06:02:40.164Z,100.0
2017-11-16T06:03:41.615Z,100.0
2017-11-16T06:04:43.056Z,100.0
2017-11-16T06:05:44.462Z,100.0
2017-11-16T06:06:45.984Z,100.0
2017-11-16T06:07:47.512Z,100.0
2017-11-16T06:08:48.946Z,100.0
2017-11-16T06:09:50.474Z,100.0
2017-11-16T06:10:52.022Z,100.0
2017-11-16T06:11:53.495Z,100.0
2017-11-16T06:12:54.928Z,100.0
2017-11-16T06:13:56.360Z,100.0
2017-11-16T06:14:57.846Z,100.0
2017-11-16T06:15:59.330Z,100.0
2017-11-16T06:17:00.826Z,100.0
2017-11-16T06:18:02.286Z,100.0
2017-11-16T06:19:03.774Z,100.0
2017-11-16T06:20:05.237Z,100.0
2017-11-16T06:21:06.756Z,100.0
2017-11-16T06:22:08.339Z,100.0
2017-11-16T06:23:10.025Z,100.0
2017-11-16T06:24:11.580Z,100.0
2017-11-16T06:25:13.083Z,100.0
2017-11-16T06:26:14.626Z,100.0
2017-11-16T06:27:16.094Z,100.0
2017-11-16T06:28:17.604Z,100.0
2017-11-16T06:29:19.096Z,100.0
2017-11-16T06:30:20.744Z,100.0
2017-11-16T06:31:22.184Z,100.0
2017-11-16T06:32:24.488Z,100.0
2017-11-16T06:33:26.013Z,100.0
2017-11-16T06:34:27.438Z,100.0
2017-11-16T06:35:28.933Z,100.0
2017-11-16T06:36:30.513Z,100.0
2017-11-16T06:37:31.944Z,100.0
2017-11-16T06:38:33.447Z,100.0
2017-11-16T06:39:35.055Z,100.0
2017-11-16T06:40:36.742Z,100.0
2017-11-16T06:41:38.654Z,100.0
2017-11-16T06:42:40.562Z,100.0
2017-11-16T06:43:42.786Z,100.0
2017-11-16T06:44:45.903Z,100.0
2017-11-16T06:46:44.513Z,100.0
2017-11-16T06:47:49.032Z,100.0
2017-11-16T06:48:51.260Z,100.0
2017-11-16T06:49:53.708Z,100.0
2017-11-16T06:51:53.735Z,100.0
2017-11-16T06:52:55.148Z,100.0
2017-11-16T06:53:57.217Z,100.0
2017-11-16T06:55:07.627Z,100.0
2017-11-16T06:56:11.108Z,100.0
2017-11-16T06:57:14.218Z,100.0
2017-11-16T06:59:49.946Z,100.0
2017-11-16T07:00:54.202Z,100.0
2017-11-16T07:01:56.768Z,100.0
2017-11-16T07:02:58.244Z,100.0
2017-11-16T07:03:59.841Z,100.0
2017-11-16T07:05:41.421Z,100.0
2017-11-16T07:06:43.642Z,100.0
2017-11-16T07:07:45.070Z,100.0
2017-11-16T07:08:46.467Z,100.0
2017-11-16T07:09:49.801Z,100.0
2017-11-16T07:12:11.167Z,100.0
2017-11-16T07:13:13.481Z,100.0
2017-11-16T07:14:17.912Z,100.0
2017-11-16T07:15:20.397Z,100.0
2017-11-16T07:16:22.235Z,100.0
2017-11-16T07:17:23.670Z,100.0
2017-11-16T07:18:25.411Z,100.0
2017-11-16T07:19:27.145Z,100.0
2017-11-16T07:21:08.053Z,100.0
2017-11-16T07:22:09.480Z,100.0
2017-11-16T07:23:10.987Z,100.0
2017-11-16T07:24:12.389Z,100.0
2017-11-16T07:25:13.811Z,100.0
2017-11-16T07:26:15.240Z,100.0
2017-11-16T07:27:16.672Z,100.0
2017-11-16T07:28:18.084Z,100.0
2017-11-16T07:29:19.604Z,100.0
2017-11-16T07:30:21.046Z,100.0
2017-11-16T07:31:22.513Z,100.0
2017-11-16T07:32:24.270Z,100.0
2017-11-16T07:33:25.729Z,100.0
2017-11-16T07:34:27.437Z,100.0
2017-11-16T07:35:28.952Z,100.0
2017-11-16T07:36:30.329Z,100.0
2017-11-16T07:37:31.778Z,100.0
2017-11-16T07:38:33.414Z,100.0
2017-11-16T07:39:34.983Z,100.0
2017-11-16T07:40:36.943Z,100.0
2017-11-16T07:41:38.402Z,100.0
2017-11-16T07:42:39.894Z,100.0
2017-11-16T07:43:41.364Z,100.0
2017-11-16T07:44:42.870Z,100.0
2017-11-16T07:45:44.273Z,100.0
2017-11-16T07:46:45.749Z,100.0
2017-11-16T07:47:47.230Z,100.0
2017-11-16T07:48:48.826Z,100.0
2017-11-16T07:49:50.476Z,100.0
2017-11-16T07:50:52.353Z,100.0
2017-11-16T07:51:54.030Z,100.0
2017-11-16T07:52:55.555Z,100.0
2017-11-16T07:53:56.978Z,100.0
2017-11-16T07:54:58.961Z,100.0
2017-11-16T07:56:00.658Z,100.0
2017-11-16T07:57:02.349Z,100.0
2017-11-16T07:58:03.943Z,100.0
2017-11-16T07:59:06.666Z,100.0
2017-11-16T08:00:08.237Z,100.0
2017-11-16T08:01:09.929Z,100.0
2017-11-16T08:02:11.609Z,100.0
2017-11-16T08:03:13.366Z,100.0
2017-11-16T08:04:14.630Z,100.0
2017-11-16T08:05:16.137Z,100.0
2017-11-16T08:06:17.931Z,100.0
2017-11-16T08:07:19.286Z,100.0
2017-11-16T08:08:20.785Z,100.0
2017-11-16T08:09:22.333Z,100.0
2017-11-16T08:10:24.417Z,100.0
2017-11-16T08:11:25.939Z,100.0
2017-11-16T08:12:27.615Z,100.0
2017-11-16T08:13:29.046Z,100.0
2017-11-16T08:14:30.527Z,100.0
2017-11-16T08:15:31.992Z,100.0
2017-11-16T08:16:33.666Z,100.0
2017-11-16T08:17:35.291Z,100.0
2017-11-16T08:18:36.849Z,100.0
2017-11-16T08:19:38.693Z,100.0
2017-11-16T08:20:40.796Z,100.0
2017-11-16T08:21:42.269Z,99.1
2017-11-16T08:22:43.782Z,99.2
2017-11-16T08:23:45.398Z,99.4
2017-11-16T08:24:47.016Z,99.4
2017-11-16T08:25:48.730Z,98.9
2017-11-16T08:26:50.188Z,98.7
2017-11-16T08:27:51.686Z,99.1
2017-11-16T08:28:55.120Z,98.7
2017-11-16T08:29:56.532Z,98.8
2017-11-16T08:30:58.205Z,98.5
2017-11-16T08:31:59.782Z,98.7
2017-11-16T08:33:01.262Z,99.2
2017-11-16T08:34:02.841Z,99.4
2017-11-16T08:35:04.286Z,99.0
2017-11-16T08:36:05.705Z,99.1
2017-11-16T08:37:07.176Z,98.7
2017-11-16T08:38:08.704Z,99.5
2017-11-16T08:39:10.221Z,99.2
2017-11-16T08:40:11.835Z,99.7
2017-11-16T08:41:13.310Z,99.7
2017-11-16T08:42:14.771Z,98.6
2017-11-16T08:43:16.245Z,98.8
2017-11-16T08:44:17.727Z,98.8
2017-11-16T08:45:19.236Z,99.4
2017-11-16T08:46:20.739Z,99.3
2017-11-16T08:47:22.271Z,99.4
2017-11-16T08:48:23.734Z,98.6
2017-11-16T08:49:25.413Z,99.5
2017-11-16T08:50:27.052Z,99.7
2017-11-16T08:51:29.144Z,99.5
2017-11-16T08:52:29.980Z,98.5
2017-11-16T08:53:31.866Z,98.9
2017-11-16T08:54:33.320Z,99.0
2017-11-16T08:55:34.826Z,98.8
2017-11-16T08:56:36.302Z,98.5
2017-11-16T08:57:37.789Z,98.3
2017-11-16T08:58:39.516Z,98.5
2017-11-16T08:59:40.943Z,98.5
2017-11-16T09:00:42.557Z,98.3
2017-11-16T09:01:44.216Z,98.9
2017-11-16T09:02:45.865Z,98.5
2017-11-16T09:03:47.278Z,97.7
2017-11-16T09:04:48.726Z,96.7
2017-11-16T09:05:50.302Z,97.2
2017-11-16T09:06:51.891Z,97.0
2017-11-16T09:07:53.549Z,96.6
2017-11-16T09:08:55.055Z,96.5
2017-11-16T09:09:56.545Z,97.1
2017-11-16T09:10:58.023Z,97.0
2017-11-16T09:11:59.477Z,96.0
2017-11-16T09:13:00.943Z,96.0
2017-11-16T09:14:02.642Z,96.0
2017-11-16T09:15:04.652Z,95.0
2017-11-16T09:16:05.607Z,94.3
2017-11-16T09:17:07.097Z,94.4
2017-11-16T09:18:08.639Z,94.7
2017-11-16T09:19:10.081Z,95.3
2017-11-16T09:20:11.862Z,94.9
2017-11-16T09:21:13.435Z,95.2
2017-11-16T09:22:15.033Z,94.6
2017-11-16T09:23:16.496Z,94.7
2017-11-16T09:24:17.925Z,94.0
2017-11-16T09:25:19.392Z,93.7
2017-11-16T09:26:20.890Z,93.1
2017-11-16T09:27:22.383Z,93.7
2017-11-16T09:28:23.844Z,93.7
2017-11-16T09:29:25.306Z,93.5
2017-11-16T09:30:41.663Z,93.4
2017-11-16T09:31:43.122Z,93.6
2017-11-16T09:32:44.551Z,93.3
2017-11-16T09:33:46.012Z,93.2
2017-11-16T09:34:47.455Z,93.4
2017-11-16T09:35:48.891Z,93.8
2017-11-16T09:36:50.390Z,94.0
2017-11-16T09:37:51.875Z,94.2
2017-11-16T09:38:53.294Z,94.7
2017-11-16T09:39:54.794Z,94.7
2017-11-16T09:40:56.241Z,94.7
2017-11-16T09:41:57.680Z,93.8
2017-11-16T09:42:59.125Z,93.8
2017-11-16T09:44:00.608Z,94.4
2017-11-16T09:45:02.094Z,94.7
2017-11-16T09:46:03.544Z,95.0
2017-11-16T09:47:05.861Z,94.8
2017-11-16T09:48:07.308Z,94.9
2017-11-16T09:49:08.758Z,94.9
2017-11-16T09:50:10.194Z,94.7
2017-11-16T09:51:11.674Z,94.9
2017-11-16T09:52:13.108Z,96.0
2017-11-16T09:53:14.585Z,95.1
2017-11-16T09:54:16.104Z,95.9
2017-11-16T09:55:17.581Z,95.6
2017-11-16T09:56:19.076Z,96.0
2017-11-16T09:57:20.550Z,96.6
2017-11-16T09:58:22.018Z,96.0
2017-11-16T09:59:23.503Z,96.0
2017-11-16T10:00:24.985Z,95.7
2017-11-16T10:01:26.450Z,95.0
2017-11-16T10:02:27.906Z,95.0
2017-11-16T10:03:29.401Z,95.8
2017-11-16T10:04:30.854Z,94.8
2017-11-16T10:05:32.344Z,94.8
2017-11-16T10:06:33.837Z,95.8
2017-11-16T10:07:35.421Z,95.9
2017-11-16T10:08:36.884Z,95.6
2017-11-16T10:09:38.331Z,94.7
2017-11-16T10:10:39.778Z,94.2
2017-11-16T10:11:41.229Z,94.8
2017-11-16T10:12:42.704Z,94.6
2017-11-16T10:13:44.136Z,93.7
2017-11-16T10:14:45.633Z,92.8
2017-11-16T10:15:47.133Z,93.7
2017-11-16T10:16:48.584Z,93.5
2017-11-16T10:17:50.037Z,93.4
2017-11-16T10:18:51.488Z,94.5
2017-11-16T10:19:52.927Z,94.6
2017-11-16T10:20:54.445Z,93.9
2017-11-16T10:21:56.548Z,94.2
2017-11-16T10:22:58.174Z,95.4
2017-11-16T10:23:59.900Z,95.7
2017-11-16T10:25:01.457Z,95.1
2017-11-16T10:26:02.784Z,95.0
2017-11-16T10:27:04.306Z,94.7
2017-11-16T10:28:05.912Z,93.9
2017-11-16T10:29:07.757Z,92.0
2017-11-16T10:30:09.204Z,90.2
2017-11-16T10:31:12.333Z,90.5
2017-11-16T10:32:13.824Z,89.0
2017-11-16T10:33:15.296Z,88.3
2017-11-16T10:34:16.915Z,87.9
2017-11-16T10:35:18.623Z,87.0
2017-11-16T10:36:20.172Z,86.6
2017-11-16T10:37:21.606Z,85.9
2017-11-16T10:38:23.166Z,86.3
2017-11-16T10:39:24.769Z,86.5
2017-11-16T10:40:26.251Z,85.3
2017-11-16T10:41:27.658Z,84.6
2017-11-16T10:42:29.174Z,83.4
2017-11-16T10:43:30.630Z,83.0
2017-11-16T10:44:32.100Z,82.7
2017-11-16T10:45:33.540Z,82.2
2017-11-16T10:46:35.038Z,81.8
2017-11-16T10:47:36.510Z,81.3
2017-11-16T10:48:37.992Z,80.9
2017-11-16T10:49:39.403Z,81.1
2017-11-16T10:50:40.990Z,81.3
2017-11-16T10:51:42.439Z,80.8
2017-11-16T10:52:43.911Z,80.8
2017-11-16T10:53:45.352Z,81.0
2017-11-16T10:54:46.809Z,80.9
2017-11-16T10:55:48.244Z,80.4
2017-11-16T10:56:49.691Z,80.2
2017-11-16T10:57:51.228Z,80.4
2017-11-16T10:58:52.799Z,80.5
2017-11-16T10:59:54.257Z,80.8
2017-11-16T11:00:55.746Z,80.3
2017-11-16T11:01:57.218Z,80.5
2017-11-16T11:02:58.692Z,80.4
2017-11-16T11:04:00.133Z,81.3
2017-11-16T11:05:01.842Z,81.4
2017-11-16T11:06:04.109Z,81.1
2017-11-16T11:07:05.572Z,81.1
2017-11-16T11:08:07.065Z,79.7
2017-11-16T11:09:08.536Z,79.8
2017-11-16T11:10:10.002Z,80.0
2017-11-16T11:11:11.426Z,79.9
2017-11-16T11:12:12.869Z,80.2
2017-11-16T11:13:14.365Z,79.4
2017-11-16T11:14:16.849Z,79.1
2017-11-16T11:15:19.095Z,79.1
2017-11-16T11:16:20.527Z,78.7
2017-11-16T11:17:22.005Z,79.0
2017-11-16T11:18:23.500Z,78.6
2017-11-16T11:19:24.998Z,77.8
2017-11-16T11:20:26.455Z,78.8
2017-11-16T11:21:27.947Z,79.3
2017-11-16T11:22:29.386Z,79.8
2017-11-16T11:23:30.850Z,78.6
2017-11-16T11:24:32.378Z,78.5
2017-11-16T11:25:33.845Z,77.9
2017-11-16T11:26:35.337Z,77.3
2017-11-16T11:27:36.850Z,76.8
2017-11-16T11:28:38.284Z,77.1
2017-11-16T11:29:39.815Z,78.1
2017-11-16T11:30:41.391Z,79.0
2017-11-16T11:31:42.909Z,79.8
2017-11-16T11:32:44.420Z,79.6
2017-11-16T11:33:45.854Z,79.9
2017-11-16T11:34:47.293Z,80.3
2017-11-16T11:35:48.770Z,79.6
2017-11-16T11:36:50.791Z,79.4
2017-11-16T11:37:52.275Z,79.5
2017-11-16T11:38:53.700Z,79.2
2017-11-16T11:39:55.163Z,77.9
2017-11-16T11:40:56.659Z,77.1
2017-11-16T11:41:58.184Z,76.7
2017-11-16T11:42:59.721Z,76.9
2017-11-16T11:44:01.226Z,77.1
2017-11-16T11:45:02.670Z,76.5
2017-11-16T11:46:04.115Z,76.4
2017-11-16T11:47:05.584Z,76.8
2017-11-16T11:48:07.049Z,77.1
2017-11-16T11:49:08.552Z,77.3
2017-11-16T11:50:10.047Z,76.7
2017-11-16T11:51:11.558Z,76.7
2017-11-16T11:52:13.029Z,76.9
2017-11-16T11:53:14.463Z,76.4
2017-11-16T11:54:18.614Z,76.5
2017-11-16T11:55:19.741Z,76.9
2017-11-16T11:56:21.169Z,77.2
2017-11-16T11:57:22.644Z,77.3
2017-11-16T11:58:24.093Z,77.1
2017-11-16T11:59:25.538Z,76.7
2017-11-16T12:00:26.967Z,76.7
2017-11-16T12:01:28.405Z,77.1
2017-11-16T12:02:29.868Z,76.9
2017-11-16T12:03:31.271Z,77.5
2017-11-16T12:04:32.755Z,77.3
2017-11-16T12:05:34.232Z,77.8
2017-11-16T12:06:35.676Z,78.0
2017-11-16T12:07:37.152Z,77.2
2017-11-16T12:08:38.683Z,77.1
2017-11-16T12:09:40.171Z,77.2
2017-11-16T12:10:41.650Z,77.5
2017-11-16T12:11:43.124Z,77.5
2017-11-16T12:12:44.588Z,77.2
2017-11-16T12:13:46.084Z,77.3
2017-11-16T12:14:47.527Z,77.7
2017-11-16T12:15:49.002Z,77.3
2017-11-16T12:16:50.488Z,77.2
2017-11-16T12:17:51.951Z,77.4
2017-11-16T12:18:53.430Z,77.3
2017-11-16T12:19:54.898Z,77.1
2017-11-16T12:20:56.362Z,77.3
2017-11-16T12:21:57.802Z,77.7
2017-11-16T12:22:59.271Z,77.3
2017-11-16T12:24:00.714Z,77.7
2017-11-16T12:25:02.151Z,78.0
2017-11-16T12:26:03.664Z,78.0
2017-11-16T12:27:05.089Z,77.9
2017-11-16T12:28:06.531Z,77.6
2017-11-16T12:29:07.996Z,77.8
2017-11-16T12:30:09.424Z,78.3
2017-11-16T12:31:11.002Z,78.4
2017-11-16T12:32:12.461Z,78.0
2017-11-16T12:33:13.925Z,77.9
2017-11-16T12:34:15.396Z,78.6
2017-11-16T12:35:16.885Z,78.5
2017-11-16T12:36:18.343Z,78.2
2017-11-16T12:37:19.835Z,78.2
2017-11-16T12:38:21.293Z,78.7
2017-11-16T12:39:22.748Z,78.4
2017-11-16T12:40:24.238Z,78.4
2017-11-16T12:41:25.703Z,77.9
2017-11-16T12:42:27.151Z,77.5
2017-11-16T12:43:28.612Z,77.8
2017-11-16T12:44:30.127Z,77.8
2017-11-16T12:45:31.670Z,77.9
2017-11-16T12:46:33.076Z,77.5
2017-11-16T12:47:34.609Z,77.3
2017-11-16T12:48:36.062Z,77.5
2017-11-16T12:49:37.560Z,77.2
2017-11-16T12:50:39.033Z,77.5
2017-11-16T12:51:40.519Z,77.2
2017-11-16T12:52:41.988Z,77.1
2017-11-16T12:53:43.459Z,76.7
2017-11-16T12:54:44.950Z,76.6
2017-11-16T12:55:46.418Z,76.6
2017-11-16T12:56:47.873Z,76.6
2017-11-16T12:57:49.368Z,76.6
2017-11-16T12:58:50.839Z,77.0
2017-11-16T12:59:52.284Z,77.2
2017-11-16T13:00:53.747Z,77.1
2017-11-16T13:01:55.222Z,77.1
2017-11-16T13:02:56.666Z,76.8
2017-11-16T13:03:58.158Z,77.4
2017-11-16T13:04:59.611Z,76.7
2017-11-16T13:06:04.368Z,77.1
2017-11-16T13:07:05.862Z,76.6
2017-11-16T13:08:07.879Z,76.8
2017-11-16T13:09:09.296Z,76.7
2017-11-16T13:10:10.800Z,76.6
2017-11-16T13:11:12.236Z,76.5
2017-11-16T13:12:13.759Z,76.4
2017-11-16T13:13:15.203Z,76.5
2017-11-16T13:14:16.718Z,76.7
2017-11-16T13:15:18.189Z,77.4
2017-11-16T13:16:19.613Z,77.6
2017-11-16T13:17:21.110Z,77.7
2017-11-16T13:18:22.556Z,77.7
2017-11-16T13:19:24.010Z,77.7
2017-11-16T13:20:25.461Z,77.9
2017-11-16T13:21:26.928Z,77.7
2017-11-16T13:22:28.432Z,78.2
2017-11-16T13:23:29.855Z,79.0
2017-11-16T13:24:31.309Z,78.7
2017-11-16T13:25:32.765Z,79.7
2017-11-16T13:26:34.205Z,80.0
2017-11-16T13:27:35.613Z,79.6
2017-11-16T13:28:37.091Z,79.5
2017-11-16T13:29:38.586Z,79.8